Kezdőlap
METAR-TAF:

METAR-TAF

Repülőterek :

Hazleton, Pennsylvania, Amerikai Egyesült Államok

földrajzi szélesség: 40-59-12N, földrajzi hosszúság: 075-59-42W, magasság: 489 m

Jelenlegi meteorológiai megfigyelések

A jelentés 21 perccel ezelõtt készült, 23:36 UTC
Dél-délkeleti szél 5 kt széllökések: 15 kt
Hőmérséklet -3°C
Páratartalom 80%
Légköri nyomás 1012 hPa
Látótávolság: 8.0 km
Borult 800 lábon
enyhe havazás

METAR: KHZL 182336Z AUTO 15005G15KT 5SM -SN OVC008 M03/M06 A2987 RMK AO2

Idő: 18:57 (23:57 UTC)


TAF: hiányzik

Meteorológiai megfigyelések és előrejelzések több, mint 4000 repülőtéren (METAR és TAF jelentéseket).

A térképen piros és sárga pontok jelzik az elérhető meteorológiai állomásokat.

Mozgassa az egeret a pont fölött, hogy megjelenjen az állomás neve.

Azután kattintson az időjárási megfigyelések és előrejelzések megtekintéséhez.

A térkép megváltoztatása: kattintson a fekete keresztel jelölt zöld gombra ráközelítéshez, a vonallal jelölt zöld gombra távolításhoz, vagy a zöld nyilakra a szomszédos térképek eléréséhez.


METAR-TAF: